Time;durP1;ratioP1;P1;durP2;ratioP2;P2;SDS_P1;SDS_P2;PMS_P1;PMS_P2;Temp;Humidity;BMP_temperature;BMP_pressure;BME280_temperature;BME280_humidity;BME280_pressure;Samples;Min_cycle;Max_cycle;Signal;HPM_P1;HPM_P2
2021/12/14 00:01:04;;;;;;;2.95;1.60;;;21.30;55.80;;;;;;5107125;28;20048;-77
2021/12/14 00:03:33;;;;;;;2.42;1.48;;;21.30;55.80;;;;;;5098187;28;20039;-77
2021/12/14 00:05:59;;;;;;;2.08;1.45;;;21.30;55.80;;;;;;5101420;28;20132;-76
2021/12/14 00:08:27;;;;;;;6.30;1.60;;;21.30;55.80;;;;;;5118433;28;20078;-76
2021/12/14 00:16:10;;;;;;;2.28;1.35;;;21.30;55.70;;;;;;5109941;28;20398;-74
2021/12/14 00:18:36;;;;;;;2.38;1.50;;;21.30;55.70;;;;;;5087264;28;20514;-77
2021/12/14 00:21:08;;;;;;;2.55;1.55;;;21.30;55.60;;;;;;5069957;28;20138;-77
2021/12/14 00:26:20;;;;;;;1.60;1.40;;;21.30;55.60;;;;;;5087317;28;20083;-77
2021/12/14 00:28:48;;;;;;;2.42;1.60;;;21.30;55.50;;;;;;5089563;28;20048;-78
2021/12/14 00:31:16;;;;;;;2.03;1.42;;;21.30;55.50;;;;;;5087690;28;20040;-77
2021/12/14 00:33:46;;;;;;;2.92;1.60;;;21.30;55.50;;;;;;5087714;28;20054;-78
2021/12/14 00:36:15;;;;;;;2.13;1.55;;;21.30;55.50;;;;;;5091760;28;20036;-77
2021/12/14 00:38:46;;;;;;;2.35;1.52;;;21.30;55.50;;;;;;5099294;28;20055;-73
2021/12/14 00:41:16;;;;;;;1.90;1.40;;;21.30;55.50;;;;;;5098992;28;20043;-75
2021/12/14 00:43:43;;;;;;;2.20;1.55;;;21.30;55.40;;;;;;5104453;28;20083;-75
2021/12/14 00:46:09;;;;;;;1.98;1.30;;;21.30;55.40;;;;;;5117947;28;20641;-75
2021/12/14 00:48:34;;;;;;;2.22;1.40;;;21.30;55.40;;;;;;5110206;28;20048;-76
2021/12/14 00:51:03;;;;;;;2.60;1.70;;;21.30;55.30;;;;;;5118283;28;20444;-78
2021/12/14 00:53:29;;;;;;;2.85;1.70;;;21.30;55.30;;;;;;5099960;28;20497;-75
2021/12/14 00:55:57;;;;;;;2.33;1.30;;;21.20;55.20;;;;;;5112356;28;20028;-73
2021/12/14 00:58:23;;;;;;;2.37;1.53;;;21.20;55.20;;;;;;5116824;27;20071;-78
2021/12/14 01:00:57;;;;;;;1.60;1.50;;;21.20;55.20;;;;;;5095745;28;20306;-75
2021/12/14 01:03:23;;;;;;;1.90;1.30;;;21.30;55.20;;;;;;5081886;28;20074;-77
2021/12/14 01:05:50;;;;;;;2.85;1.55;;;21.30;55.20;;;;;;5098277;28;20055;-77
2021/12/14 01:08:20;;;;;;;1.42;1.20;;;21.20;55.10;;;;;;5084733;28;20062;-76
2021/12/14 01:11:04;;;;;;;2.85;1.50;;;21.20;55.10;;;;;;5117055;28;20047;-78
2021/12/14 01:13:32;;;;;;;2.95;1.45;;;21.20;55.00;;;;;;5099251;28;20113;-77
2021/12/14 01:16:30;;;;;;;2.70;1.35;;;21.20;55.00;;;;;;5098473;28;20124;-77
2021/12/14 01:19:11;;;;;;;2.33;1.50;;;21.30;55.10;;;;;;5131212;27;20522;-77
2021/12/14 01:21:59;;;;;;;1.80;1.40;;;21.20;55.00;;;;;;5099473;28;20035;-76
2021/12/14 01:24:52;;;;;;;2.65;1.40;;;21.30;55.00;;;;;;5096869;28;20044;-74
2021/12/14 01:27:23;;;;;;;1.98;1.50;;;21.30;55.00;;;;;;5098898;28;20047;-78
2021/12/14 01:29:52;;;;;;;3.78;1.50;;;21.30;54.90;;;;;;5116669;28;20067;-75
2021/12/14 01:32:22;;;;;;;2.00;1.60;;;21.20;54.90;;;;;;5111007;28;20072;-77
2021/12/14 01:34:47;;;;;;;2.25;1.48;;;21.30;54.90;;;;;;5117746;28;20116;-78
2021/12/14 01:37:19;;;;;;;2.67;1.27;;;21.30;54.90;;;;;;5153962;27;20025;-76
2021/12/14 01:40:02;;;;;;;2.10;1.52;;;21.30;54.90;;;;;;5117274;28;20031;-75
2021/12/14 01:42:33;;;;;;;4.10;1.50;;;21.30;54.80;;;;;;5108730;28;20044;-78
2021/12/14 01:45:10;;;;;;;1.60;1.25;;;21.30;54.80;;;;;;5089085;28;20028;-71
2021/12/14 01:47:48;;;;;;;1.80;1.58;;;21.20;54.70;;;;;;5087310;28;20051;-77
2021/12/14 01:50:22;;;;;;;1.75;1.40;;;21.20;54.70;;;;;;5109060;28;20047;-76
2021/12/14 01:52:48;;;;;;;1.48;1.25;;;21.20;54.70;;;;;;5115399;28;20055;-78
2021/12/14 01:55:22;;;;;;;2.90;1.45;;;21.20;54.70;;;;;;5137191;27;20044;-77
2021/12/14 01:57:48;;;;;;;2.08;1.35;;;21.20;54.70;;;;;;5106590;28;20695;-78
2021/12/14 02:00:33;;;;;;;2.50;1.70;;;21.20;54.70;;;;;;5087047;28;20035;-77
2021/12/14 02:03:07;;;;;;;2.40;1.70;;;21.20;54.60;;;;;;5087679;28;20074;-78
2021/12/14 02:05:39;;;;;;;3.33;1.50;;;21.20;54.60;;;;;;5097831;28;20040;-77
2021/12/14 02:08:20;;;;;;;2.30;1.48;;;21.20;54.70;;;;;;5109460;28;20106;-76
2021/12/14 02:10:46;;;;;;;2.72;1.55;;;21.20;54.60;;;;;;5107496;28;20478;-77
2021/12/14 02:13:12;;;;;;;3.58;1.50;;;21.20;54.60;;;;;;5108506;28;20117;-77
2021/12/14 02:15:44;;;;;;;1.88;1.42;;;21.20;54.60;;;;;;5098522;28;20083;-79
2021/12/14 02:18:15;;;;;;;2.05;1.60;;;21.20;54.50;;;;;;5088948;28;20047;-79
2021/12/14 02:20:52;;;;;;;3.35;1.52;;;21.20;54.50;;;;;;5142208;27;20039;-77
2021/12/14 02:23:20;;;;;;;2.27;1.70;;;21.20;54.50;;;;;;5107588;28;20101;-77
2021/12/14 02:25:46;;;;;;;1.47;1.33;;;21.20;55.20;;;;;;5103748;28;20529;-75
2021/12/14 02:28:16;;;;;;;2.92;1.48;;;21.20;54.50;;;;;;5108463;28;20043;-78
2021/12/14 02:30:43;;;;;;;2.92;1.60;;;21.20;54.40;;;;;;5103583;28;20052;-78
2021/12/14 02:33:20;;;;;;;2.30;1.63;;;21.20;54.40;;;;;;5090553;28;20063;-79
2021/12/14 02:35:47;;;;;;;3.05;1.73;;;21.20;54.40;;;;;;5096114;28;20066;-79
2021/12/14 02:38:12;;;;;;;2.35;1.58;;;21.20;54.30;;;;;;5090777;28;20410;-72
2021/12/14 02:40:57;;;;;;;2.70;1.65;;;21.20;54.30;;;;;;5104844;27;20578;-76
2021/12/14 02:43:30;;;;;;;1.80;1.55;;;21.20;54.30;;;;;;5107407;27;20639;-76
2021/12/14 02:46:07;;;;;;;2.58;1.58;;;21.20;54.30;;;;;;5138369;27;20083;-71
2021/12/14 02:48:34;;;;;;;2.05;1.40;;;21.20;54.30;;;;;;5090493;28;20040;-75
2021/12/14 02:51:20;;;;;;;2.63;1.70;;;21.20;54.30;;;;;;5091541;27;20047;-76
2021/12/14 02:53:49;;;;;;;1.90;1.45;;;21.20;54.20;;;;;;5084479;28;20048;-76
2021/12/14 02:56:18;;;;;;;3.55;1.70;;;21.20;54.20;;;;;;5104942;28;20048;-75
2021/12/14 02:58:46;;;;;;;2.05;1.60;;;21.20;54.20;;;;;;5087317;28;20107;-75
2021/12/14 03:01:16;;;;;;;2.05;1.70;;;21.20;54.20;;;;;;5102812;27;20058;-76
2021/12/14 03:03:42;;;;;;;2.33;1.50;;;21.20;55.00;;;;;;5105515;28;20051;-77
2021/12/14 03:06:10;;;;;;;2.22;1.65;;;21.20;54.20;;;;;;5139218;27;20078;-76
2021/12/14 03:08:44;;;;;;;2.33;1.77;;;21.20;54.20;;;;;;5108330;28;20051;-75
2021/12/14 03:11:11;;;;;;;1.73;1.50;;;21.20;54.10;;;;;;5096758;28;20039;-76
2021/12/14 03:13:47;;;;;;;2.65;1.60;;;21.20;54.10;;;;;;5107000;28;20040;-74
2021/12/14 03:16:26;;;;;;;2.92;1.80;;;21.20;54.00;;;;;;5110248;28;20043;-75
2021/12/14 03:18:55;;;;;;;1.70;1.50;;;21.20;54.00;;;;;;5106989;27;20043;-75
2021/12/14 03:21:28;;;;;;;2.25;1.70;;;21.20;54.00;;;;;;5091355;28;20063;-76
2021/12/14 03:23:59;;;;;;;2.50;1.70;;;21.20;54.00;;;;;;5088058;28;20044;-75
2021/12/14 03:26:28;;;;;;;5.32;1.77;;;21.20;54.00;;;;;;5084371;28;20511;-76
2021/12/14 03:28:58;;;;;;;1.42;1.33;;;21.20;54.00;;;;;;5103485;27;20138;-75
2021/12/14 03:31:34;;;;;;;1.88;1.42;;;21.20;54.00;;;;;;5104507;27;20043;-73
2021/12/14 03:34:26;;;;;;;2.67;1.70;;;21.20;54.00;;;;;;5135578;27;20055;-76
2021/12/14 03:37:18;;;;;;;3.28;1.70;;;21.20;53.90;;;;;;5119632;27;20051;-76
2021/12/14 03:39:47;;;;;;;3.05;1.92;;;21.20;54.00;;;;;;5090486;28;20040;-76
2021/12/14 03:42:18;;;;;;;3.63;1.70;;;21.20;53.90;;;;;;5104554;28;20052;-76
2021/12/14 03:44:50;;;;;;;2.47;1.65;;;21.20;53.90;;;;;;5100450;28;20044;-75
2021/12/14 03:47:16;;;;;;;1.55;1.45;;;21.20;53.90;;;;;;5104021;28;20503;-76
2021/12/14 03:49:49;;;;;;;3.58;1.60;;;21.20;53.90;;;;;;5123132;27;20040;-76
2021/12/14 03:52:18;;;;;;;3.13;1.80;;;21.20;53.80;;;;;;5106472;28;20043;-76
2021/12/14 03:54:44;;;;;;;2.90;1.92;;;21.20;53.80;;;;;;5102617;28;20115;-76
2021/12/14 03:57:10;;;;;;;2.05;1.60;;;21.20;53.80;;;;;;5105202;28;20146;-76
2021/12/14 03:59:36;;;;;;;2.40;1.90;;;21.20;53.80;;;;;;5131139;27;20495;-77
2021/12/14 04:02:05;;;;;;;2.05;1.58;;;21.20;53.80;;;;;;5085218;28;20036;-73
2021/12/14 04:04:36;;;;;;;2.42;1.50;;;21.20;53.80;;;;;;5101676;28;20043;-75
2021/12/14 04:07:05;;;;;;;2.78;1.73;;;21.20;53.80;;;;;;5101115;28;20046;-76
2021/12/14 04:09:34;;;;;;;2.13;1.70;;;21.20;53.80;;;;;;5104249;28;20089;-75
2021/12/14 04:12:00;;;;;;;2.00;1.58;;;21.20;53.70;;;;;;5085686;28;20111;-75
2021/12/14 04:14:29;;;;;;;2.42;1.70;;;21.10;53.70;;;;;;5108112;27;20048;-76
2021/12/14 04:16:56;;;;;;;2.08;1.60;;;21.20;53.70;;;;;;5109276;27;20499;-76
2021/12/14 04:19:27;;;;;;;1.92;1.60;;;21.20;53.70;;;;;;5108441;27;20051;-72
2021/12/14 04:21:58;;;;;;;2.80;1.70;;;21.20;53.70;;;;;;5097699;28;20135;-72
2021/12/14 04:24:32;;;;;;;2.55;1.90;;;21.20;53.60;;;;;;5087547;28;20060;-76
2021/12/14 04:27:01;;;;;;;2.03;1.83;;;21.20;53.60;;;;;;5108595;28;20134;-74
2021/12/14 04:29:29;;;;;;;2.47;2.00;;;21.20;53.60;;;;;;5108867;27;20059;-74
2021/12/14 04:31:55;;;;;;;3.20;1.90;;;21.20;53.60;;;;;;5109413;28;20055;-75
2021/12/14 04:34:21;;;;;;;2.20;1.80;;;21.20;53.60;;;;;;5110151;28;20189;-75
2021/12/14 04:36:51;;;;;;;1.90;1.70;;;21.20;53.50;;;;;;5094843;27;20036;-75
2021/12/14 04:39:34;;;;;;;2.33;2.00;;;21.20;53.50;;;;;;5097603;28;20035;-76
2021/12/14 04:51:57;;;;;;;2.35;1.85;;;21.20;53.50;;;;;;5093816;28;20138;-73
2021/12/14 04:54:02;;;;;;;2.78;1.60;;;21.10;53.40;;;;;;5104278;28;20797;-76
2021/12/14 04:56:32;;;;;;;1.90;1.70;;;21.20;53.50;;;;;;5106355;28;20054;-75
2021/12/14 04:59:23;;;;;;;1.95;1.83;;;21.10;53.40;;;;;;5105918;28;20045;-76
2021/12/14 05:01:52;;;;;;;2.08;1.70;;;21.20;53.40;;;;;;5082073;28;20082;-75
2021/12/14 05:04:23;;;;;;;4.95;1.90;;;21.10;53.40;;;;;;5107939;28;20051;-75
2021/12/14 05:06:53;;;;;;;3.25;1.80;;;21.20;53.40;;;;;;5106142;28;20068;-76
2021/12/14 05:09:29;;;;;;;2.45;1.88;;;21.10;53.40;;;;;;5109157;28;20047;-72
2021/12/14 05:12:04;;;;;;;2.22;1.83;;;21.10;53.30;;;;;;5108978;28;20043;-75
2021/12/14 05:14:30;;;;;;;3.28;1.90;;;21.20;53.40;;;;;;5101875;28;20119;-75
2021/12/14 05:16:59;;;;;;;2.05;1.85;;;21.20;53.40;;;;;;5091045;28;20185;-76
2021/12/14 05:19:27;;;;;;;2.10;1.77;;;21.20;53.30;;;;;;5090549;28;20046;-75
2021/12/14 05:22:03;;;;;;;2.03;1.83;;;21.20;53.40;;;;;;5111332;27;20043;-74
2021/12/14 05:24:29;;;;;;;2.60;1.75;;;21.10;53.30;;;;;;5104927;28;20055;-76
2021/12/14 05:26:59;;;;;;;2.28;1.80;;;21.10;53.30;;;;;;5110263;28;20494;-76
2021/12/14 05:29:26;;;;;;;2.10;1.90;;;21.10;53.40;;;;;;5102716;27;20052;-75
2021/12/14 05:31:57;;;;;;;2.20;1.73;;;21.10;53.30;;;;;;5092267;28;20112;-77
2021/12/14 05:34:24;;;;;;;;;;;21.20;53.30;;;;;;5100967;28;20043;-75
2021/12/14 05:36:51;;;;;;;2.58;2.13;;;21.20;53.30;;;;;;5091258;28;19915;-74
2021/12/14 05:44:38;;;;;;;4.22;1.83;;;21.10;53.20;;;;;;5121619;28;20035;-79
2021/12/14 05:47:10;;;;;;;2.45;2.05;;;21.10;53.20;;;;;;5120885;28;20044;-76
2021/12/14 05:49:41;;;;;;;2.80;2.00;;;21.20;53.20;;;;;;5120900;28;20046;-78
2021/12/14 05:52:10;;;;;;;2.85;1.95;;;21.10;53.20;;;;;;5102360;28;20040;-77
2021/12/14 05:54:38;;;;;;;2.22;1.60;;;21.20;53.20;;;;;;5084274;28;20051;-78
2021/12/14 05:57:05;;;;;;;3.35;2.10;;;21.20;53.20;;;;;;5105728;28;20495;-75
2021/12/14 05:59:33;;;;;;;2.35;1.70;;;21.10;53.20;;;;;;5107269;28;20043;-78
2021/12/14 06:02:00;;;;;;;2.22;1.80;;;21.20;53.20;;;;;;5111840;28;20043;-75
2021/12/14 06:04:27;;;;;;;2.55;2.05;;;21.10;53.20;;;;;;5089034;28;20032;-77
2021/12/14 06:06:55;;;;;;;2.42;2.22;;;21.10;53.20;;;;;;5123346;27;20036;-76
2021/12/14 06:09:24;;;;;;;1.93;1.77;;;21.10;53.10;;;;;;5092618;28;20055;-75
2021/12/14 06:11:56;;;;;;;2.35;1.90;;;21.10;53.10;;;;;;5090375;28;20693;-72
2021/12/14 06:14:23;;;;;;;2.75;2.10;;;21.10;53.10;;;;;;5105649;28;20051;-72
2021/12/14 06:16:54;;;;;;;2.53;2.00;;;21.10;53.10;;;;;;5090366;28;20456;-75
2021/12/14 06:19:24;;;;;;;2.88;1.98;;;21.10;53.10;;;;;;5107004;28;20042;-78
2021/12/14 06:21:56;;;;;;;2.45;2.03;;;21.10;53.10;;;;;;5111475;28;20109;-77
2021/12/14 06:24:25;;;;;;;2.15;1.95;;;21.10;53.00;;;;;;5106129;28;20032;-75
2021/12/14 06:26:54;;;;;;;2.10;1.90;;;21.10;53.00;;;;;;5090814;28;20044;-76
2021/12/14 06:29:29;;;;;;;2.08;1.83;;;21.10;53.00;;;;;;5086643;28;20044;-77
2021/12/14 06:31:55;;;;;;;2.92;2.17;;;21.20;53.10;;;;;;5086775;28;20050;-77
2021/12/14 06:34:30;;;;;;;5.97;2.13;;;21.20;53.10;;;;;;5099541;28;20047;-76
2021/12/14 06:37:18;;;;;;;3.22;1.90;;;21.10;52.90;;;;;;5107157;28;20082;-78
2021/12/14 06:40:18;;;;;;;2.45;1.85;;;21.20;53.00;;;;;;5105215;28;20047;-75
2021/12/14 06:42:52;;;;;;;2.20;1.83;;;21.10;53.00;;;;;;5086878;28;20130;-74
2021/12/14 06:45:28;;;;;;;2.15;1.95;;;21.10;52.90;;;;;;5110093;27;20543;-77
2021/12/14 06:48:08;;;;;;;2.40;2.03;;;21.10;52.90;;;;;;5096771;28;20807;-77
2021/12/14 06:50:39;;;;;;;2.67;2.10;;;21.10;53.70;;;;;;5105191;28;20044;-77
2021/12/14 06:53:09;;;;;;;2.40;1.92;;;21.10;53.00;;;;;;5106833;28;20043;-77
2021/12/14 06:55:36;;;;;;;2.60;1.88;;;21.20;53.00;;;;;;5089358;28;20644;-76
2021/12/14 06:58:11;;;;;;;2.30;2.08;;;21.10;52.90;;;;;;5088156;28;20097;-77
2021/12/14 07:00:41;;;;;;;2.15;1.90;;;21.10;52.90;;;;;;5099468;28;20051;-73
2021/12/14 07:03:06;;;;;;;2.10;1.90;;;21.10;52.90;;;;;;5086233;28;20517;-78
2021/12/14 07:05:32;;;;;;;2.53;2.20;;;21.10;52.90;;;;;;5096000;28;20036;-78
2021/12/14 07:08:06;;;;;;;2.20;2.00;;;21.10;52.90;;;;;;5086020;28;20112;-74
2021/12/14 07:10:39;;;;;;;2.22;2.03;;;21.20;53.00;;;;;;5100054;28;20055;-77
2021/12/14 07:13:13;;;;;;;2.10;1.80;;;21.20;53.00;;;;;;5105264;28;20132;-77
2021/12/14 07:15:38;;;;;;;2.63;2.20;;;21.10;52.90;;;;;;5103443;28;20054;-76
2021/12/14 07:18:05;;;;;;;2.70;1.95;;;21.10;52.90;;;;;;5088907;28;20036;-77
2021/12/14 07:20:39;;;;;;;2.13;1.80;;;21.10;52.90;;;;;;5104302;28;20399;-77
2021/12/14 07:23:33;;;;;;;2.78;2.42;;;21.10;52.90;;;;;;5110104;28;20051;-74
2021/12/14 07:26:08;;;;;;;2.55;2.00;;;21.10;52.90;;;;;;5117518;28;20031;-78
2021/12/14 07:28:45;;;;;;;3.25;2.20;;;21.10;52.90;;;;;;5106206;28;20084;-76
2021/12/14 07:31:24;;;;;;;2.90;2.30;;;21.10;52.90;;;;;;5112068;28;20078;-76
2021/12/14 07:33:52;;;;;;;4.60;2.10;;;21.10;52.90;;;;;;5132385;27;20035;-73
2021/12/14 07:36:23;;;;;;;2.58;2.03;;;21.10;52.90;;;;;;5105774;28;20039;-74
2021/12/14 07:38:51;;;;;;;3.55;1.90;;;21.10;52.90;;;;;;5101539;28;20047;-76
2021/12/14 07:41:31;;;;;;;5.05;2.20;;;21.10;52.90;;;;;;5086786;28;20128;-76
2021/12/14 07:44:01;;;;;;;3.28;2.13;;;21.20;53.10;;;;;;5097786;28;20154;-76
2021/12/14 07:46:38;;;;;;;2.92;2.30;;;21.10;53.00;;;;;;5123150;27;20044;-73
2021/12/14 07:49:29;;;;;;;5.70;2.20;;;21.10;53.10;;;;;;5091394;28;20044;-69
2021/12/14 07:52:02;;;;;;;6.60;2.17;;;21.20;53.20;;;;;;5096154;27;20046;-80
2021/12/14 07:54:32;;;;;;;6.93;2.53;;;21.20;53.40;;;;;;5093228;28;20036;-80
2021/12/14 07:57:05;;;;;;;4.05;2.25;;;21.20;53.60;;;;;;5097694;28;20039;-80
2021/12/14 07:59:35;;;;;;;4.90;2.65;;;21.20;53.70;;;;;;5089907;28;20040;-79
2021/12/14 08:02:09;;;;;;;2.45;2.10;;;21.20;53.80;;;;;;5095713;28;20040;-84
2021/12/14 08:04:36;;;;;;;5.82;2.17;;;21.20;54.00;;;;;;5094791;28;20091;-78
2021/12/14 08:07:03;;;;;;;3.67;2.45;;;21.20;53.90;;;;;;5095736;28;20115;-77
2021/12/14 08:09:48;;;;;;;3.10;2.65;;;21.30;54.00;;;;;;5088449;28;20380;-77
2021/12/14 08:12:34;;;;;;;5.80;2.60;;;21.30;53.90;;;;;;5090961;28;21103;-74
2021/12/14 08:15:06;;;;;;;4.60;2.67;;;21.30;53.90;;;;;;5094685;28;20444;-76
2021/12/14 08:17:32;;;;;;;2.70;2.35;;;21.30;53.80;;;;;;5089763;28;20075;-75
2021/12/14 08:19:59;;;;;;;3.25;2.50;;;21.30;53.80;;;;;;5126451;27;20082;-75
2021/12/14 08:22:32;;;;;;;3.15;2.40;;;21.30;53.70;;;;;;5092962;28;20040;-76
2021/12/14 08:24:59;;;;;;;3.95;2.80;;;21.30;53.70;;;;;;5095965;28;20043;-76
2021/12/14 08:27:27;;;;;;;3.08;2.58;;;21.30;53.70;;;;;;5097021;28;20070;-75
2021/12/14 08:29:56;;;;;;;6.07;2.45;;;21.30;53.70;;;;;;5092475;28;20630;-73
2021/12/14 08:32:26;;;;;;;5.75;2.40;;;21.30;53.60;;;;;;5096972;28;20617;-77
2021/12/14 08:34:54;;;;;;;2.53;2.30;;;21.30;53.70;;;;;;5093179;28;20040;-76
2021/12/14 08:37:26;;;;;;;2.45;2.22;;;21.30;53.60;;;;;;5109290;28;20102;-75
2021/12/14 08:40:02;;;;;;;4.13;2.55;;;21.30;53.60;;;;;;5120368;27;20035;-74
2021/12/14 08:42:39;;;;;;;3.92;2.50;;;21.30;53.60;;;;;;5099862;28;20414;-75
2021/12/14 08:45:25;;;;;;;3.47;2.65;;;21.40;53.60;;;;;;5102517;28;20037;-77
2021/12/14 08:48:05;;;;;;;3.03;2.67;;;21.30;53.60;;;;;;5099945;28;20063;-79
2021/12/14 08:50:37;;;;;;;3.60;2.83;;;21.30;53.50;;;;;;5099175;28;20097;-75
2021/12/14 08:53:05;;;;;;;2.67;2.45;;;21.40;53.50;;;;;;5096071;28;20118;-79
2021/12/14 08:55:33;;;;;;;3.95;2.47;;;21.40;53.50;;;;;;5115755;27;20085;-76
2021/12/14 08:58:00;;;;;;;4.20;2.63;;;21.30;53.40;;;;;;5098492;28;20042;-77
2021/12/14 09:00:35;;;;;;;5.03;2.65;;;21.30;53.40;;;;;;5092790;27;20046;-79
2021/12/14 09:03:04;;;;;;;3.67;2.58;;;21.40;53.50;;;;;;5092999;28;20606;-78
2021/12/14 09:05:35;;;;;;;2.78;2.47;;;21.30;53.40;;;;;;5093228;28;20546;-77
2021/12/14 09:08:02;;;;;;;3.40;2.47;;;21.40;53.50;;;;;;5094191;28;20469;-79
2021/12/14 09:10:32;;;;;;;4.53;2.55;;;21.30;53.40;;;;;;5095587;27;20036;-70
2021/12/14 09:13:03;;;;;;;3.10;2.80;;;21.30;53.40;;;;;;5092892;28;20523;-70
2021/12/14 09:15:38;;;;;;;2.95;2.67;;;21.30;53.30;;;;;;5123776;27;20113;-73
2021/12/14 09:18:04;;;;;;;3.85;2.40;;;21.40;53.40;;;;;;5092508;28;20450;-77
2021/12/14 09:20:38;;;;;;;4.00;2.75;;;21.30;53.30;;;;;;5093657;28;20040;-73
2021/12/14 09:23:12;;;;;;;3.55;2.72;;;21.30;53.30;;;;;;5099197;28;20039;-79
2021/12/14 09:25:39;;;;;;;3.53;3.17;;;21.30;53.30;;;;;;5099550;28;20104;-79
2021/12/14 09:28:06;;;;;;;4.07;2.73;;;21.30;53.30;;;;;;5103089;28;20054;-76
2021/12/14 09:30:42;;;;;;;4.65;3.00;;;21.40;53.30;;;;;;5087292;28;20062;-78
2021/12/14 09:33:08;;;;;;;4.25;2.85;;;21.30;53.20;;;;;;5105034;28;20052;-78
2021/12/14 09:35:35;;;;;;;6.10;2.78;;;21.30;53.10;;;;;;5099770;28;20385;-76
2021/12/14 09:38:05;;;;;;;5.90;3.38;;;21.30;53.00;;;;;;5101324;28;20040;-79
2021/12/14 09:40:45;;;;;;;4.72;2.90;;;21.30;53.00;;;;;;5109623;27;20039;-75
2021/12/14 09:43:12;;;;;;;4.47;3.03;;;21.30;53.00;;;;;;5091973;28;20697;-74
2021/12/14 09:45:44;;;;;;;3.90;3.10;;;21.30;53.00;;;;;;5091148;28;20032;-72
2021/12/14 09:48:13;;;;;;;3.92;2.95;;;21.30;53.20;;;;;;5097884;28;20036;-76
2021/12/14 09:50:40;;;;;;;4.00;2.90;;;21.30;53.30;;;;;;5108881;27;20137;-71
2021/12/14 09:53:10;;;;;;;3.53;3.22;;;21.30;53.40;;;;;;5109132;27;20043;-77
2021/12/14 09:55:40;;;;;;;4.88;3.50;;;21.30;53.40;;;;;;5105991;28;20120;-79
2021/12/14 09:58:12;;;;;;;4.45;2.90;;;21.30;53.50;;;;;;5107156;28;20039;-78
2021/12/14 10:00:48;;;;;;;3.88;3.00;;;21.30;53.50;;;;;;5104299;27;20040;-78
2021/12/14 10:03:15;;;;;;;12.13;3.42;;;21.30;53.60;;;;;;5098511;28;20069;-74
2021/12/14 10:05:48;;;;;;;3.70;3.20;;;21.30;53.60;;;;;;5097762;28;20044;-78
2021/12/14 10:08:20;;;;;;;4.50;3.40;;;21.30;53.60;;;;;;5095423;28;20643;-75
2021/12/14 10:11:04;;;;;;;4.85;2.92;;;21.40;53.80;;;;;;5093567;28;20601;-72
2021/12/14 10:13:32;;;;;;;5.13;3.22;;;21.40;53.90;;;;;;5098355;28;20345;-77
2021/12/14 10:15:59;;;;;;;3.92;2.97;;;21.40;53.90;;;;;;5098588;28;20105;-73
2021/12/14 10:18:35;;;;;;;4.97;3.30;;;21.40;54.00;;;;;;5094841;27;20260;-74
2021/12/14 10:21:12;;;;;;;3.47;3.17;;;21.40;54.00;;;;;;5103174;28;20024;-72
2021/12/14 10:23:45;;;;;;;4.00;3.30;;;21.40;54.20;;;;;;5101161;28;20522;-76
2021/12/14 10:26:12;;;;;;;7.93;3.63;;;21.40;54.00;;;;;;5092096;28;20663;-77
2021/12/14 10:28:40;;;;;;;5.70;3.35;;;21.40;54.00;;;;;;5093527;28;20490;-71
2021/12/14 10:31:10;;;;;;;3.63;3.25;;;21.40;54.00;;;;;;5119181;27;20052;-79
2021/12/14 10:33:38;;;;;;;5.90;3.45;;;21.40;54.00;;;;;;5099878;28;20043;-80
2021/12/14 10:36:20;;;;;;;7.90;3.30;;;21.40;54.00;;;;;;5102665;28;20055;-73
2021/12/14 10:44:44;;;;;;;6.68;3.53;;;21.40;53.90;;;;;;5034022;28;20135;-75
2021/12/14 10:47:12;;;;;;;3.90;3.38;;;21.40;53.80;;;;;;5081218;28;20479;-77
2021/12/14 10:49:38;;;;;;;3.97;3.35;;;21.30;53.70;;;;;;5104360;28;20085;-80
2021/12/14 10:52:14;;;;;;;4.95;3.20;;;21.30;53.70;;;;;;5129143;27;20042;-80
2021/12/14 10:54:46;;;;;;;5.00;3.50;;;21.30;53.70;;;;;;5104334;28;20498;-80
2021/12/14 10:57:17;;;;;;;3.72;3.42;;;21.30;53.70;;;;;;5092656;27;20051;-82
2021/12/14 10:59:46;;;;;;;7.50;3.92;;;21.30;53.70;;;;;;5101362;28;20166;-80
2021/12/14 11:02:12;;;;;;;5.72;3.53;;;21.40;53.70;;;;;;5096663;28;20079;-78
2021/12/14 11:04:42;;;;;;;5.28;3.30;;;21.30;53.60;;;;;;5092300;28;20503;-74
2021/12/14 11:07:13;;;;;;;5.00;3.90;;;21.30;53.60;;;;;;5096464;28;20039;-70
2021/12/14 11:09:52;;;;;;;4.90;3.38;;;21.30;53.70;;;;;;5094708;27;20047;-69
2021/12/14 11:12:36;;;;;;;4.43;3.33;;;21.40;53.80;;;;;;5094514;28;20054;-74
2021/12/14 11:15:16;;;;;;;4.85;3.47;;;21.40;53.80;;;;;;5097649;28;20032;-70
2021/12/14 11:20:43;;;;;;;4.90;3.65;;;21.40;53.90;;;;;;5094779;28;20047;-68
2021/12/14 11:23:14;;;;;;;3.63;3.25;;;21.40;53.80;;;;;;5073266;28;20044;-75
2021/12/14 11:25:51;;;;;;;7.32;3.75;;;21.40;53.80;;;;;;5089610;28;20040;-70
2021/12/14 11:28:26;;;;;;;5.75;3.05;;;21.40;53.80;;;;;;5101351;28;20043;-70
2021/12/14 11:30:57;;;;;;;3.53;3.15;;;21.40;53.90;;;;;;5103216;28;20079;-72
2021/12/14 11:33:27;;;;;;;4.70;3.38;;;21.40;53.90;;;;;;5088668;28;20071;-72
2021/12/14 11:35:58;;;;;;;7.93;3.42;;;21.40;53.90;;;;;;5086834;28;20068;-73
2021/12/14 11:38:48;;;;;;;6.38;3.45;;;21.40;53.80;;;;;;5095920;28;20043;-71
2021/12/14 11:41:42;;;;;;;5.43;3.50;;;21.40;53.70;;;;;;5089919;28;20048;-70
2021/12/14 11:44:18;;;;;;;5.38;3.10;;;21.40;53.70;;;;;;5091493;28;20046;-73
2021/12/14 11:47:01;;;;;;;3.60;2.95;;;21.40;53.70;;;;;;5090266;28;20048;-70
2021/12/14 11:49:53;;;;;;;4.75;3.15;;;21.40;53.70;;;;;;5090276;28;20126;-69
2021/12/14 11:52:50;;;;;;;5.03;3.00;;;21.40;53.70;;;;;;5092660;28;20078;-71
2021/12/14 11:55:34;;;;;;;5.18;2.95;;;21.40;53.70;;;;;;5092672;27;20093;-76
2021/12/14 11:58:04;;;;;;;5.20;3.25;;;21.40;53.80;;;;;;5073798;28;20058;-71
2021/12/14 12:00:31;;;;;;;6.90;2.78;;;21.40;53.80;;;;;;5093254;28;20083;-70
2021/12/14 12:02:57;;;;;;;5.28;3.45;;;21.40;53.90;;;;;;5091399;28;20082;-70
2021/12/14 12:05:31;;;;;;;3.90;3.03;;;21.40;54.00;;;;;;5107671;27;20518;-71
2021/12/14 12:11:03;;;;;;;3.85;2.83;;;21.40;54.10;;;;;;5090375;28;20058;-71
2021/12/14 12:13:39;;;;;;;5.68;3.00;;;21.40;54.10;;;;;;5092976;28;20127;-76
2021/12/14 12:16:19;;;;;;;3.90;2.88;;;21.40;54.10;;;;;;5091068;28;20044;-74
2021/12/14 12:19:05;;;;;;;6.97;2.95;;;21.40;54.20;;;;;;5094989;28;20042;-68
2021/12/14 12:21:32;;;;;;;8.85;3.10;;;21.40;54.30;;;;;;5096349;28;20042;-72
2021/12/14 12:23:58;;;;;;;7.05;3.40;;;21.40;54.20;;;;;;5094434;28;20487;-68
2021/12/14 12:26:28;;;;;;;7.07;3.20;;;21.40;54.30;;;;;;5092884;28;20039;-70
2021/12/14 12:29:01;;;;;;;5.43;3.33;;;21.40;54.40;;;;;;5092573;28;20439;-74
2021/12/14 12:31:26;;;;;;;6.18;2.92;;;21.40;54.40;;;;;;5092766;28;20047;-74
2021/12/14 12:33:55;;;;;;;4.22;3.28;;;21.40;54.40;;;;;;5095333;28;20357;-73
2021/12/14 12:36:35;;;;;;;5.40;3.20;;;21.40;55.20;;;;;;5095084;27;20598;-77
2021/12/14 12:39:12;;;;;;;6.03;3.50;;;21.40;54.40;;;;;;5127888;27;20067;-78
2021/12/14 12:41:56;;;;;;;4.75;3.20;;;21.40;54.50;;;;;;5098013;27;20040;-79
2021/12/14 12:44:31;;;;;;;8.45;3.08;;;21.40;54.60;;;;;;5100528;28;20082;-80
2021/12/14 12:47:02;;;;;;;5.75;2.95;;;21.40;54.60;;;;;;5098745;28;20515;-76
2021/12/14 12:49:44;;;;;;;4.82;3.30;;;21.40;54.70;;;;;;5097284;27;20507;-79
2021/12/14 12:52:16;;;;;;;5.95;3.10;;;21.40;54.70;;;;;;5098627;27;20047;-79
2021/12/14 12:54:44;;;;;;;3.53;2.88;;;21.40;54.70;;;;;;5094733;28;20051;-76
2021/12/14 12:57:13;;;;;;;4.40;3.22;;;21.40;54.70;;;;;;5095989;27;20039;-79
2021/12/14 12:59:40;;;;;;;6.40;3.53;;;21.40;54.70;;;;;;5098219;28;20158;-77
2021/12/14 13:02:17;;;;;;;5.88;3.10;;;21.40;54.70;;;;;;5095198;28;20040;-79
2021/12/14 13:04:45;;;;;;;3.47;2.95;;;21.40;54.80;;;;;;5099609;28;20058;-76
2021/12/14 13:07:11;;;;;;;7.18;3.42;;;21.40;54.80;;;;;;5098332;28;20044;-78
2021/12/14 13:10:06;;;;;;;4.47;3.22;;;21.40;54.80;;;;;;5095449;28;20101;-79
2021/12/14 13:12:48;;;;;;;4.40;3.20;;;21.40;54.80;;;;;;5096055;27;20572;-79
2021/12/14 13:15:39;;;;;;;4.25;3.05;;;21.40;54.80;;;;;;5097568;28;20039;-74
2021/12/14 13:18:34;;;;;;;4.97;3.30;;;21.40;54.80;;;;;;5097272;28;20126;-79
2021/12/14 13:21:17;;;;;;;6.20;2.90;;;21.40;54.80;;;;;;5096381;28;20134;-77
2021/12/14 13:23:58;;;;;;;4.15;3.40;;;21.40;54.80;;;;;;5094915;28;20040;-75
2021/12/14 13:26:45;;;;;;;3.17;2.88;;;21.40;54.80;;;;;;5099748;28;20130;-77
2021/12/14 13:29:11;;;;;;;4.43;2.88;;;21.40;54.90;;;;;;5097416;28;20067;-79
2021/12/14 13:31:41;;;;;;;3.88;3.05;;;21.40;54.80;;;;;;5095188;27;20089;-76
2021/12/14 13:34:38;;;;;;;5.13;3.40;;;21.40;54.90;;;;;;5095253;27;20490;-73
2021/12/14 13:37:05;;;;;;;4.70;3.20;;;21.40;54.80;;;;;;5101474;28;20035;-71
2021/12/14 13:39:32;;;;;;;4.20;3.27;;;21.40;54.90;;;;;;5086274;28;20624;-75
2021/12/14 13:42:06;;;;;;;4.47;3.00;;;21.40;55.00;;;;;;5094823;27;20301;-77
2021/12/14 13:44:35;;;;;;;4.82;2.90;;;21.40;55.00;;;;;;5095670;28;20499;-69
2021/12/14 13:47:07;;;;;;;7.25;3.13;;;21.40;55.00;;;;;;5094025;27;20140;-69
2021/12/14 13:49:35;;;;;;;4.70;3.25;;;21.40;55.10;;;;;;5095083;28;20039;-72